Coatbridge, United Kingdom
Current Conditions -  °F | °C
As of 3:50 PM on Friday 24 Oct 2014 (Local Time) from EGPF Reporting Station
Broken Clouds Broken Clouds  
Wind Chill: 11°   Ceiling: 2700
Heat Index: 11°   Visibility: 6mi
Dew Point:   Wind: 14mph
Humidity: 82%   Direction: 220°SW
Pressure: 29.71"   Gusts: NA
Location:  55.86°N, 4.03°W
Report Text: EGPF 241450Z AUTO 22012KT 9999 BKN027 11/08 Q1006
Loading
Personal Weather Stations






























Interactive Weather Map
Tropical Storm Tracking
New forecast layout! Learn more

10-Day Weather Forecast

Advertisements
Track Severe Weather on mobile